createdAt,value
2022-08-02T00:00:12.566Z,7.72
2022-08-02T00:02:46.864Z,7.80
2022-08-02T00:05:20.178Z,8.00
2022-08-02T00:07:48.293Z,7.57
2022-08-02T00:10:24.362Z,7.50
2022-08-02T00:12:53.226Z,7.90
2022-08-02T00:15:20.544Z,7.70
2022-08-02T00:17:48.630Z,7.60
2022-08-02T00:20:29.262Z,8.60
2022-08-02T00:22:58.338Z,8.82
2022-08-02T00:25:32.161Z,8.65
2022-08-02T00:30:34.234Z,8.65
2022-08-02T00:33:02.893Z,7.15
2022-08-02T00:35:40.709Z,7.18
2022-08-02T00:38:23.345Z,7.38
2022-08-02T00:40:58.217Z,6.65
2022-08-02T00:43:57.613Z,6.90
2022-08-02T00:46:24.649Z,7.35
2022-08-02T00:48:56.824Z,7.32
2022-08-02T00:51:46.620Z,7.28
2022-08-02T00:54:38.617Z,7.05
2022-08-02T00:57:07.898Z,6.90
2022-08-02T00:59:35.996Z,7.18
2022-08-02T01:02:18.674Z,7.15
2022-08-02T01:04:46.785Z,7.50
2022-08-02T01:07:19.706Z,7.10
2022-08-02T01:09:48.844Z,7.10
2022-08-02T01:12:20.211Z,7.20
2022-08-02T01:14:58.952Z,7.32
2022-08-02T01:18:03.198Z,7.30
2022-08-02T01:21:17.306Z,6.60
2022-08-02T01:24:11.204Z,8.17
2022-08-02T01:27:00.045Z,7.97
2022-08-02T01:29:34.850Z,7.93
2022-08-02T01:32:26.118Z,7.82
2022-08-02T01:35:50.492Z,7.82
2022-08-02T01:41:12.684Z,10.23
2022-08-02T01:44:03.396Z,8.18
2022-08-02T01:46:33.402Z,8.52
2022-08-02T01:49:06.818Z,8.57
2022-08-02T01:52:04.678Z,9.30
2022-08-02T01:54:40.285Z,9.43
2022-08-02T01:57:12.468Z,10.00
2022-08-02T01:59:42.680Z,9.95
2022-08-02T02:02:32.747Z,10.32
2022-08-02T02:05:03.342Z,9.10
2022-08-02T02:07:35.572Z,9.30
2022-08-02T02:10:04.401Z,9.55
2022-08-02T02:12:41.903Z,8.52
2022-08-02T02:15:11.836Z,8.60
2022-08-02T02:17:52.044Z,15.88
2022-08-02T02:20:34.746Z,9.90
2022-08-02T02:23:03.141Z,9.32
2022-08-02T02:25:35.882Z,9.00
2022-08-02T02:28:10.017Z,9.07
2022-08-02T02:30:40.524Z,9.23
2022-08-02T02:33:11.987Z,10.35
2022-08-02T02:35:41.840Z,9.95
2022-08-02T02:38:13.969Z,9.77
2022-08-02T02:40:42.414Z,9.13
2022-08-02T02:43:12.526Z,9.38
2022-08-02T02:45:41.188Z,8.98
2022-08-02T02:48:09.941Z,9.90
2022-08-02T02:50:37.541Z,9.43
2022-08-02T02:53:07.265Z,9.48
2022-08-02T02:55:34.772Z,9.73
2022-08-02T02:58:04.855Z,9.85
2022-08-02T03:00:50.970Z,9.88
2022-08-02T03:03:21.483Z,9.77
2022-08-02T03:05:56.987Z,9.65
2022-08-02T03:08:24.159Z,9.88
2022-08-02T03:10:52.274Z,9.60
2022-08-02T03:13:23.231Z,9.95
2022-08-02T03:16:01.097Z,9.70
2022-08-02T03:18:36.381Z,8.77
2022-08-02T03:21:13.309Z,9.98
2022-08-02T03:23:43.691Z,10.65
2022-08-02T03:26:14.961Z,10.40
2022-08-02T03:28:44.019Z,9.93
2022-08-02T03:31:13.143Z,9.45
2022-08-02T03:33:40.704Z,8.95
2022-08-02T03:36:12.631Z,10.02
2022-08-02T03:38:44.161Z,10.27
2022-08-02T03:41:16.925Z,9.60
2022-08-02T03:43:46.935Z,10.02
2022-08-02T03:46:16.173Z,10.63
2022-08-02T03:48:45.008Z,10.30
2022-08-02T03:51:14.240Z,11.52
2022-08-02T03:53:48.094Z,11.80
2022-08-02T03:58:49.014Z,10.52
2022-08-02T04:01:17.058Z,11.20
2022-08-02T04:04:00.421Z,11.77
2022-08-02T04:06:40.121Z,11.80
2022-08-02T04:09:10.161Z,10.68
2022-08-02T04:11:38.201Z,11.07
2022-08-02T04:14:11.389Z,11.75
2022-08-02T04:16:42.791Z,12.38
2022-08-02T04:19:17.757Z,12.43
2022-08-02T04:21:52.087Z,11.90
2022-08-02T04:24:32.477Z,11.35
2022-08-02T04:27:19.105Z,13.05
2022-08-02T04:29:50.063Z,11.80
2022-08-02T04:32:24.372Z,12.23
2022-08-02T04:35:18.586Z,12.75
2022-08-02T04:38:08.172Z,13.70
2022-08-02T04:40:28.197Z,13.40
2022-08-02T04:43:02.128Z,13.60
2022-08-02T04:45:31.845Z,13.50
2022-08-02T04:48:05.351Z,13.07
2022-08-02T04:50:35.291Z,13.13
2022-08-02T04:53:02.501Z,13.10
2022-08-02T04:55:30.524Z,13.00
2022-08-02T04:57:59.100Z,12.43
2022-08-02T05:00:35.533Z,12.07
2022-08-02T05:03:03.077Z,12.02
2022-08-02T05:05:31.356Z,12.18
2022-08-02T05:07:59.653Z,11.95
2022-08-02T05:10:30.079Z,11.20
2022-08-02T05:12:57.205Z,12.05
2022-08-02T05:15:24.316Z,11.40
2022-08-02T05:17:52.308Z,11.55
2022-08-02T05:20:20.232Z,11.45
2022-08-02T05:22:49.207Z,10.63
2022-08-02T05:25:16.310Z,12.27
2022-08-02T05:27:44.394Z,11.25
2022-08-02T05:30:12.782Z,10.93
2022-08-02T05:32:48.731Z,11.02
2022-08-02T05:35:20.733Z,11.00
2022-08-02T05:37:57.167Z,10.95
2022-08-02T05:40:31.292Z,9.90
2022-08-02T05:43:00.515Z,10.98
2022-08-02T05:45:28.765Z,11.27
2022-08-02T05:47:56.855Z,11.00
2022-08-02T05:50:28.938Z,10.45
2022-08-02T05:53:25.273Z,11.55
2022-08-02T05:56:06.658Z,11.25
2022-08-02T05:58:55.648Z,10.80
2022-08-02T06:01:34.322Z,11.57
2022-08-02T06:04:09.841Z,11.55
2022-08-02T06:06:44.479Z,12.23
2022-08-02T06:09:23.223Z,11.60
2022-08-02T06:12:10.936Z,11.75
2022-08-02T06:14:38.378Z,11.27
2022-08-02T06:17:06.771Z,11.35
2022-08-02T06:19:50.987Z,10.82
2022-08-02T06:22:42.409Z,10.65
2022-08-02T06:25:50.918Z,10.48
2022-08-02T06:28:20.412Z,9.68
2022-08-02T06:30:53.048Z,9.18
2022-08-02T06:33:21.288Z,9.27
2022-08-02T06:35:56.940Z,8.40
2022-08-02T06:38:27.897Z,8.70
2022-08-02T06:41:06.397Z,8.25
2022-08-02T06:44:13.753Z,8.00
2022-08-02T06:47:10.232Z,7.97
2022-08-02T06:49:51.377Z,7.60
2022-08-02T06:52:27.728Z,7.30
2022-08-02T06:55:00.383Z,6.93
2022-08-02T06:57:34.309Z,6.93
2022-08-02T07:02:38.001Z,6.75
2022-08-02T07:05:05.793Z,6.68
2022-08-02T07:07:33.627Z,6.47
2022-08-02T07:10:06.981Z,6.80
2022-08-02T07:12:36.106Z,6.30
2022-08-02T07:15:12.827Z,6.57
2022-08-02T07:17:42.853Z,6.60
2022-08-02T07:20:10.389Z,6.57
2022-08-02T07:22:40.310Z,6.00
2022-08-02T07:25:08.341Z,6.05
2022-08-02T07:27:35.602Z,6.38
2022-08-02T07:30:05.513Z,6.03
2022-08-02T07:32:33.420Z,6.07
2022-08-02T07:35:03.407Z,5.95
2022-08-02T07:37:58.076Z,6.45
2022-08-02T07:40:25.628Z,5.97
2022-08-02T07:43:02.443Z,5.93
2022-08-02T07:45:55.747Z,5.72
2022-08-02T07:48:23.803Z,5.20
2022-08-02T07:50:54.650Z,4.78
2022-08-02T07:53:30.585Z,4.90
2022-08-02T07:56:11.175Z,4.60
2022-08-02T07:58:43.397Z,4.70
2022-08-02T08:01:11.651Z,5.10
2022-08-02T08:03:46.136Z,4.32
2022-08-02T08:06:15.324Z,4.68
2022-08-02T08:08:44.414Z,4.65
2022-08-02T08:11:12.547Z,4.85
2022-08-02T08:13:39.660Z,4.55
2022-08-02T08:16:06.814Z,4.47
2022-08-02T08:18:35.581Z,4.35
2022-08-02T08:21:08.731Z,4.20
2022-08-02T08:23:36.321Z,4.60
2022-08-02T08:26:04.834Z,4.20
2022-08-02T08:28:33.092Z,4.53
2022-08-02T08:31:00.329Z,4.40
2022-08-02T08:33:29.351Z,4.22
2022-08-02T08:36:04.889Z,4.45
2022-08-02T08:38:31.980Z,4.53
2022-08-02T08:40:59.240Z,4.28
2022-08-02T08:43:30.384Z,4.53
2022-08-02T08:45:58.520Z,4.65
2022-08-02T08:48:31.988Z,4.95
2022-08-02T08:51:12.159Z,4.70
2022-08-02T08:53:46.748Z,4.93
2022-08-02T08:56:16.630Z,4.20
2022-08-02T08:58:48.424Z,4.10
2022-08-02T09:01:17.736Z,4.82
2022-08-02T09:03:51.274Z,4.60
2022-08-02T09:06:19.388Z,4.90
2022-08-02T09:08:46.591Z,4.22
2022-08-02T09:11:24.561Z,4.40
2022-08-02T09:14:01.673Z,4.60
2022-08-02T09:16:31.636Z,4.07
2022-08-02T09:18:59.631Z,4.18
2022-08-02T09:21:42.060Z,4.00
2022-08-02T09:24:20.463Z,3.70
2022-08-02T09:26:54.592Z,3.97
2022-08-02T09:29:26.977Z,3.60
2022-08-02T09:32:03.880Z,4.10
2022-08-02T09:34:52.472Z,3.10
2022-08-02T09:37:50.116Z,3.28
2022-08-02T09:40:17.132Z,3.58
2022-08-02T09:43:04.195Z,3.42
2022-08-02T09:45:34.906Z,3.75
2022-08-02T09:48:09.430Z,3.30
2022-08-02T09:50:42.871Z,3.10
2022-08-02T09:53:28.136Z,3.47
2022-08-02T09:55:58.509Z,3.30
2022-08-02T09:58:52.228Z,3.70
2022-08-02T10:01:36.913Z,3.33
2022-08-02T10:04:15.718Z,3.30
2022-08-02T10:06:49.719Z,3.50
2022-08-02T10:09:17.354Z,3.38
2022-08-02T10:11:44.521Z,2.90
2022-08-02T10:14:12.368Z,2.97
2022-08-02T10:16:41.761Z,2.75
2022-08-02T10:19:13.858Z,2.50
2022-08-02T10:21:57.032Z,2.40
2022-08-02T10:24:28.106Z,2.13
2022-08-02T10:26:59.411Z,2.08
2022-08-02T10:29:53.416Z,1.83
2022-08-02T10:35:20.002Z,1.85
2022-08-02T10:38:01.646Z,1.98
2022-08-02T10:43:44.077Z,2.00
2022-08-02T10:46:24.824Z,1.95
2022-08-02T10:52:02.993Z,1.95
2022-08-02T10:54:40.089Z,2.58
2022-08-02T10:57:31.612Z,1.92
2022-08-02T11:00:10.124Z,2.10
2022-08-02T11:02:52.955Z,2.20
2022-08-02T11:05:42.563Z,1.90
2022-08-02T11:08:23.479Z,2.10
2022-08-02T11:10:50.578Z,1.85
2022-08-02T11:13:26.887Z,1.80
2022-08-02T11:16:10.779Z,1.80
2022-08-02T11:19:00.553Z,1.80
2022-08-02T11:21:33.118Z,2.10
2022-08-02T11:24:29.942Z,1.77
2022-08-02T11:27:08.647Z,2.03
2022-08-02T11:29:46.641Z,2.08
2022-08-02T11:32:31.003Z,1.65
2022-08-02T11:35:00.831Z,2.03
2022-08-02T11:37:38.795Z,2.00
2022-08-02T11:40:19.507Z,1.73
2022-08-02T11:42:51.234Z,1.75
2022-08-02T11:45:29.746Z,1.80
2022-08-02T11:47:57.587Z,1.80
2022-08-02T11:50:29.943Z,1.90
2022-08-02T11:53:26.721Z,1.58
2022-08-02T11:55:57.463Z,1.60
2022-08-02T11:58:31.630Z,1.73
2022-08-02T12:00:58.868Z,1.23
2022-08-02T12:03:50.603Z,1.23
2022-08-02T12:06:20.838Z,1.40
2022-08-02T12:08:54.625Z,1.13
2022-08-02T12:13:57.093Z,1.30
2022-08-02T12:16:43.677Z,1.20
2022-08-02T12:19:20.884Z,1.30
2022-08-02T12:21:47.989Z,1.17
2022-08-02T12:24:37.709Z,1.40
2022-08-02T12:27:06.260Z,1.33
2022-08-02T12:29:58.511Z,1.20
2022-08-02T12:32:30.140Z,1.20
2022-08-02T12:35:15.420Z,1.30
2022-08-02T12:38:11.339Z,1.30
2022-08-02T12:40:39.072Z,1.30
2022-08-02T12:43:16.667Z,1.23
2022-08-02T12:45:56.807Z,1.23
2022-08-02T12:48:48.157Z,1.10
2022-08-02T12:51:56.312Z,1.30
2022-08-02T12:54:31.050Z,1.25
2022-08-02T12:59:50.993Z,1.25
2022-08-02T13:02:18.536Z,5.13
2022-08-02T13:04:49.792Z,1.38
2022-08-02T13:07:19.799Z,1.20
2022-08-02T13:15:02.843Z,1.38
2022-08-02T13:17:30.118Z,1.20
2022-08-02T13:19:57.194Z,1.35
2022-08-02T13:22:24.517Z,1.10
2022-08-02T13:25:00.940Z,1.42
2022-08-02T13:27:28.772Z,1.05
2022-08-02T13:29:58.938Z,1.00
2022-08-02T13:32:29.194Z,1.20
2022-08-02T13:35:01.446Z,1.02
2022-08-02T13:37:28.522Z,1.08
2022-08-02T13:40:19.990Z,1.27
2022-08-02T13:42:44.631Z,1.33
2022-08-02T13:45:13.804Z,1.13
2022-08-02T13:47:57.178Z,1.00
2022-08-02T13:50:32.527Z,1.20
2022-08-02T13:52:59.626Z,1.20
2022-08-02T13:55:26.818Z,1.10
2022-08-02T13:57:54.472Z,1.40
2022-08-02T14:00:35.642Z,1.60
2022-08-02T14:03:07.793Z,1.10
2022-08-02T14:05:47.496Z,1.30
2022-08-02T14:08:23.118Z,1.23
2022-08-02T14:10:52.363Z,1.08
2022-08-02T14:13:24.635Z,1.48
2022-08-02T14:15:51.829Z,1.55
2022-08-02T14:18:18.964Z,1.98
2022-08-02T14:20:46.262Z,1.20
2022-08-02T14:23:15.465Z,0.98
2022-08-02T14:25:43.797Z,1.10
2022-08-02T14:28:11.038Z,1.48
2022-08-02T14:30:39.277Z,1.30
2022-08-02T14:33:06.483Z,1.23
2022-08-02T14:35:33.955Z,1.25
2022-08-02T14:38:02.095Z,1.30
2022-08-02T14:40:32.145Z,0.90
2022-08-02T14:43:01.385Z,1.00
2022-08-02T14:45:40.739Z,1.10
2022-08-02T14:48:11.769Z,1.35
2022-08-02T14:50:46.536Z,1.23
2022-08-02T14:53:21.821Z,1.15
2022-08-02T14:55:51.339Z,1.27
2022-08-02T14:58:18.518Z,1.40
2022-08-02T15:00:54.869Z,1.30
2022-08-02T15:03:21.978Z,1.42
2022-08-02T15:05:50.473Z,1.33
2022-08-02T15:08:19.464Z,1.10
2022-08-02T15:10:56.757Z,1.50
2022-08-02T15:13:25.827Z,1.38
2022-08-02T15:15:54.001Z,1.20
2022-08-02T15:18:21.439Z,1.20
2022-08-02T15:21:52.649Z,1.50
2022-08-02T15:24:02.663Z,1.02
2022-08-02T15:26:39.701Z,1.17
2022-08-02T15:29:14.912Z,1.23
2022-08-02T15:31:43.620Z,1.50
2022-08-02T15:34:10.965Z,1.30
2022-08-02T15:36:52.476Z,1.52
2022-08-02T15:39:19.736Z,1.40
2022-08-02T15:41:46.807Z,1.20
2022-08-02T15:44:14.888Z,1.27
2022-08-02T15:46:43.976Z,1.30
2022-08-02T15:49:11.283Z,1.40
2022-08-02T15:51:38.363Z,1.40
2022-08-02T15:54:05.463Z,1.25
2022-08-02T15:56:33.481Z,20.92
2022-08-02T15:59:00.534Z,9.82
2022-08-02T16:01:36.960Z,13.35
2022-08-02T16:04:07.350Z,8.88
2022-08-02T16:06:36.993Z,1.30
2022-08-02T16:09:08.449Z,1.30
2022-08-02T16:11:35.630Z,10.48
2022-08-02T16:14:08.876Z,1.25
2022-08-02T16:19:45.937Z,1.60
2022-08-02T16:21:58.378Z,1.40
2022-08-02T16:24:26.509Z,1.70
2022-08-02T16:26:53.583Z,1.58
2022-08-02T16:29:21.614Z,1.40
2022-08-02T16:31:54.456Z,1.45
2022-08-02T16:34:23.492Z,1.48
2022-08-02T16:36:50.589Z,1.30
2022-08-02T16:39:22.711Z,1.50
2022-08-02T16:41:53.151Z,1.40
2022-08-02T16:44:29.272Z,1.45
2022-08-02T16:47:13.994Z,1.42
2022-08-02T16:50:06.538Z,1.38
2022-08-02T16:52:34.362Z,1.70
2022-08-02T16:55:02.214Z,1.48
2022-08-02T16:57:43.166Z,1.40
2022-08-02T17:00:15.585Z,1.50
2022-08-02T17:02:43.399Z,1.52
2022-08-02T17:05:14.634Z,1.35
2022-08-02T17:08:07.723Z,1.45
2022-08-02T17:10:34.908Z,1.70
2022-08-02T17:13:11.380Z,1.50
2022-08-02T17:16:01.329Z,1.70
2022-08-02T17:18:33.140Z,1.50
2022-08-02T17:21:04.290Z,1.60
2022-08-02T17:24:04.025Z,1.42
2022-08-02T17:26:19.888Z,1.67
2022-08-02T17:29:17.755Z,1.40
2022-08-02T17:31:37.291Z,1.60
2022-08-02T17:34:11.996Z,1.50
2022-08-02T17:36:41.244Z,1.50
2022-08-02T17:39:08.383Z,1.60
2022-08-02T17:41:48.951Z,2.00
2022-08-02T17:44:37.566Z,2.30
2022-08-02T17:47:06.477Z,2.53
2022-08-02T17:49:36.116Z,2.42
2022-08-02T17:52:47.795Z,2.28
2022-08-02T17:54:52.736Z,2.38
2022-08-02T17:57:55.696Z,2.22
2022-08-02T18:00:15.277Z,2.45
2022-08-02T18:02:43.857Z,2.17
2022-08-02T18:05:20.397Z,2.40
2022-08-02T18:10:37.827Z,3.20
2022-08-02T18:13:05.497Z,3.08
2022-08-02T18:15:36.696Z,2.75
2022-08-02T18:18:03.881Z,2.70
2022-08-02T18:20:31.394Z,3.00
2022-08-02T18:22:59.061Z,3.40
2022-08-02T18:25:37.729Z,3.35
2022-08-02T18:28:15.437Z,4.15
2022-08-02T18:30:44.635Z,4.50
2022-08-02T18:33:57.984Z,4.93
2022-08-02T18:35:59.731Z,7.60
2022-08-02T18:38:31.894Z,6.22
2022-08-02T18:41:03.070Z,4.95
2022-08-02T18:43:34.487Z,6.50
2022-08-02T18:46:15.317Z,4.38
2022-08-02T18:48:48.056Z,3.95
2022-08-02T18:51:40.682Z,4.40
2022-08-02T18:54:08.534Z,4.20
2022-08-02T19:00:20.558Z,4.22
2022-08-02T19:02:54.798Z,4.07
2022-08-02T19:05:24.290Z,3.90
2022-08-02T19:08:12.338Z,4.22
2022-08-02T19:10:49.073Z,3.90
2022-08-02T19:13:52.287Z,4.65
2022-08-02T19:16:52.889Z,4.85
2022-08-02T19:19:28.847Z,4.60
2022-08-02T19:22:18.051Z,5.80
2022-08-02T19:25:00.196Z,5.30
2022-08-02T19:27:32.683Z,5.07
2022-08-02T19:30:07.612Z,5.00
2022-08-02T19:32:40.240Z,5.07
2022-08-02T19:35:36.968Z,5.53
2022-08-02T19:38:30.560Z,6.50
2022-08-02T19:41:01.701Z,7.03
2022-08-02T19:44:25.767Z,5.22
2022-08-02T19:46:33.516Z,4.65
2022-08-02T19:49:16.352Z,5.15
2022-08-02T19:51:55.029Z,5.68
2022-08-02T19:54:44.801Z,5.32
2022-08-02T19:57:19.402Z,5.10
2022-08-02T19:59:53.869Z,5.55
2022-08-02T20:02:29.324Z,5.75
2022-08-02T20:05:16.014Z,6.07
2022-08-02T20:07:54.277Z,6.25
2022-08-02T20:10:25.106Z,6.35
2022-08-02T20:12:56.837Z,6.75
2022-08-02T20:15:51.899Z,6.63
2022-08-02T20:18:11.155Z,6.22
2022-08-02T20:20:51.675Z,6.60
2022-08-02T20:23:33.675Z,6.50
2022-08-02T20:26:09.018Z,6.40
2022-08-02T20:28:36.348Z,6.53
2022-08-02T20:31:19.557Z,7.13
2022-08-02T20:33:55.514Z,7.33
2022-08-02T20:36:23.751Z,6.70
2022-08-02T20:39:06.279Z,7.07
2022-08-02T20:42:07.927Z,6.40
2022-08-02T20:44:57.791Z,6.70
2022-08-02T20:47:39.611Z,6.10
2022-08-02T20:50:31.667Z,7.45
2022-08-02T20:53:03.180Z,7.38
2022-08-02T20:55:36.037Z,6.95
2022-08-02T20:58:14.967Z,7.30
2022-08-02T21:00:52.717Z,6.97
2022-08-02T21:03:20.549Z,6.47
2022-08-02T21:06:17.049Z,7.00
2022-08-02T21:08:53.220Z,6.40
2022-08-02T21:11:33.491Z,7.13
2022-08-02T21:14:07.390Z,7.38
2022-08-02T21:16:37.383Z,7.40
2022-08-02T21:19:07.955Z,7.47
2022-08-02T21:21:37.863Z,7.05
2022-08-02T21:24:05.529Z,7.20
2022-08-02T21:26:37.658Z,7.72
2022-08-02T21:29:05.039Z,10.38
2022-08-02T21:31:36.121Z,8.15
2022-08-02T21:34:21.676Z,8.13
2022-08-02T21:36:53.536Z,8.02
2022-08-02T21:39:22.055Z,8.43
2022-08-02T21:41:50.331Z,8.57
2022-08-02T21:44:22.777Z,8.18
2022-08-02T21:46:54.924Z,8.48
2022-08-02T21:49:41.044Z,8.90
2022-08-02T21:52:12.810Z,8.65
2022-08-02T21:54:40.996Z,8.48
2022-08-02T21:57:16.828Z,8.23
2022-08-02T21:59:52.876Z,8.00
2022-08-02T22:02:47.837Z,8.27
2022-08-02T22:05:14.743Z,8.40
2022-08-02T22:07:45.835Z,8.63
2022-08-02T22:10:19.226Z,8.30
2022-08-02T22:12:47.447Z,8.52
2022-08-02T22:15:35.840Z,8.10
2022-08-02T22:18:08.483Z,8.55
2022-08-02T22:20:44.845Z,8.90
2022-08-02T22:23:51.178Z,8.35
2022-08-02T22:26:19.439Z,8.77
2022-08-02T22:28:51.103Z,8.52
2022-08-02T22:34:26.495Z,8.82
2022-08-02T22:37:00.822Z,8.57
2022-08-02T22:39:29.023Z,8.57
2022-08-02T22:42:05.638Z,8.40
2022-08-02T22:44:36.094Z,8.80
2022-08-02T22:47:14.807Z,8.98
2022-08-02T22:49:52.877Z,8.70
2022-08-02T22:52:23.909Z,9.18
2022-08-02T22:54:51.234Z,9.40
2022-08-02T22:57:30.538Z,9.35
2022-08-02T22:58:59.610Z,2.83
2022-08-02T22:59:04.978Z,8.13
2022-08-02T23:00:10.172Z,9.23
2022-08-02T23:02:49.412Z,9.00
2022-08-02T23:05:17.710Z,8.77
2022-08-02T23:07:49.950Z,9.18
2022-08-02T23:10:17.058Z,8.63
2022-08-02T23:12:56.477Z,8.50
2022-08-02T23:15:27.637Z,8.85
2022-08-02T23:18:14.018Z,9.73
2022-08-02T23:20:54.430Z,8.77
2022-08-02T23:23:34.884Z,9.48
2022-08-02T23:26:04.167Z,9.25
2022-08-02T23:28:32.560Z,9.77
2022-08-02T23:31:49.441Z,9.23
2022-08-02T23:34:18.556Z,9.20
2022-08-02T23:36:47.734Z,9.95
2022-08-02T23:39:16.681Z,8.80
2022-08-02T23:42:03.299Z,8.95
2022-08-02T23:44:31.325Z,9.25
2022-08-02T23:47:00.670Z,9.00
2022-08-02T23:49:30.974Z,9.32
2022-08-02T23:52:01.720Z,9.35
2022-08-02T23:54:30.204Z,10.10
2022-08-02T23:56:57.463Z,9.95
2022-08-02T23:59:25.580Z,10.00
